Accueil
METAR-TAF:

METAR-TAF

Aéroports :

Carcassonne, France

Aéroport de Carcassonne Salvaza

latitude: 43-13N, longitude: 002-19E, altitude: 130 m

Observation

Le bulletin a été fait il y a 30 minutes, à 01:30 UTC
Vent 11 kt de ouest/nord-ouest
Température 23°C
Humidité 73%
Pression 1021 hPa
Visibilité 10 km ou plus
Ciel couvert à une hauteur de 4100 ft

METAR: LFMK 240130Z AUTO 29011KT 9999 OVC041 23/18 Q1021

Heure: 04:00 (02:00 UTC)

Prévision

Le bulletin a été fait il y a 12 heures et 0 minutes, à 14:00 UTC
Prévision valable du 23 à 15 UTC au 24 à 15 UTC
Vent 15 kt de ouest
Visibilité 10 km ou plus
Nuages fragmentés à une hauteur de 3500 ft

TAF: LFMK 231400Z 2315/2415 27015KT 9999 BKN035

Observations et prévisions météorologiques de plus de 4000 aéroports (messages METAR et TAF).

Les stations disponibles sont représentées par des disques jaunes et rouges sur la carte.

Passer la souris dessus pour voir le nom de la station.

Cliquer dessus pour voir les observations et prévisions météorologiques.

Pour changer de carte: cliquez sur les boutons verts avec une croix noire pour zoomer, sur le bouton vert avec un tiret pour effectuer un zoom arrière, ou sur les flèches vertes pour les cartes adjacentes.


METAR-TAF: